logo
Search for airport 
image banner adimage banner adimage banner ad
image banner ad

SVJG - Hacienda El Calvario

Located in Distrito Perija Zulia, Venezuela

ICAO - , IATA -

Data provided by Airmate  

General information

Coordinates: N9°53'45" W72°33'2"
Elevation is 262 feet MSL.
Magnetic variation is -10° East
View others Airports in Zulia

Operational data

Special qualification required
Current time UTC:
Current local time:
Weather at : - ( 0 km )
METAR: CYKL 191301Z AUTO 20009KT 160V230 9SM BKN021 BKN029 BKN096 18/14 A2977 RMK SLP087 DENSITY ALT 2700FT
View NOTAMs / SUP AIP / TFR affecting this airport [VIEW]
Communications frequencies: [VIEW]

Runways:

RWY identifierQFULength (ft)Width (ft)SurfaceLDA (ft)
12118°306551ASPH
30298°306551ASPH

Airport contact information

Address: Distrito Perija Zulia Venezuela

Satellite view of SVJG